<?xml version='1.0' encoding='UTF-8'?>
<gpx xmlns="http://www.topografix.com/GPX/1/1" creator="www.balnam.be" version="1.1" xmlns:xsi="http://www.w3.org/2001/XMLSchema-instance" xsi:schemaLocation="http://www.topografix.com/GPX/1/1 http://www.topografix.com/GPX/1/1/gpx.xsd">
<trk>
<name>xnsab1</name>
<cmt>r</cmt>
<desc>Ambly Chemin n°1 </desc>
<link href="https://chemins.be/ambly/chemin/1"/><trkseg>
<trkpt lat="50.138598" lon="5.313254"><time>2026-05-04T18:00:26Z</time></trkpt>
<trkpt lat="50.138482" lon="5.312535"><time>2026-05-04T18:10:26Z</time></trkpt>
</trkseg></trk>
<trk>
<name>xnsab1</name>
<cmt>v</cmt>
<desc>Ambly Chemin n°1 </desc>
<link href="https://chemins.be/ambly/chemin/1"/><trkseg>
<trkpt lat="50.138482" lon="5.312535"><time>2026-05-04T18:10:26Z</time></trkpt>
<trkpt lat="50.138482" lon="5.310380"><time>2026-05-04T18:20:26Z</time></trkpt>
<trkpt lat="50.137912" lon="5.306432"><time>2026-05-04T18:30:26Z</time></trkpt>
<trkpt lat="50.137299" lon="5.304732"><time>2026-05-04T18:40:26Z</time></trkpt>
</trkseg>
</trk>
<trk>
<name>xnsab10</name>
<cmt>v</cmt>
<desc>Ambly Chemin n°10 </desc>
<link href="https://chemins.be/ambly/chemin/10"/><trkseg>
<trkpt lat="50.148474" lon="5.302727"><time>2026-05-04T18:00:26Z</time></trkpt>
<trkpt lat="50.151131" lon="5.305518"><time>2026-05-04T18:10:26Z</time></trkpt>
<trkpt lat="50.151431" lon="5.305488"><time>2026-05-04T18:20:26Z</time></trkpt>
<trkpt lat="50.152137" lon="5.304821"><time>2026-05-04T18:30:26Z</time></trkpt>
<trkpt lat="50.155580" lon="5.306521"><time>2026-05-04T18:40:26Z</time></trkpt>
<trkpt lat="50.156625" lon="5.307757"><time>2026-05-04T18:50:26Z</time></trkpt>
<trkpt lat="50.158362" lon="5.308358"><time>2026-05-04T19:00:26Z</time></trkpt>
<trkpt lat="50.159282" lon="5.308976"><time>2026-05-04T19:10:26Z</time></trkpt>
<trkpt lat="50.159508" lon="5.308996"><time>2026-05-04T19:20:26Z</time></trkpt>
</trkseg>
</trk>
<trk>
<name>xnsab11</name>
<cmt>v</cmt>
<desc>Ambly Chemin n°11 </desc>
<link href="https://chemins.be/ambly/chemin/11"/><trkseg>
<trkpt lat="50.144904" lon="5.278403"><time>2026-05-04T18:00:26Z</time></trkpt>
<trkpt lat="50.145140" lon="5.278789"><time>2026-05-04T18:10:26Z</time></trkpt>
</trkseg></trk>
<trk>
<name>xnsab11</name>
<cmt>q</cmt>
<desc>Ambly Chemin n°11 </desc>
<link href="https://chemins.be/ambly/chemin/11"/><trkseg>
<trkpt lat="50.145140" lon="5.278789"><time>2026-05-04T18:10:26Z</time></trkpt>
<trkpt lat="50.145294" lon="5.279003"><time>2026-05-04T18:20:26Z</time></trkpt>
<trkpt lat="50.144864" lon="5.281233"><time>2026-05-04T18:30:26Z</time></trkpt>
<trkpt lat="50.144994" lon="5.282133"><time>2026-05-04T18:40:26Z</time></trkpt>
</trkseg></trk>
<trk>
<name>xnsab11</name>
<cmt>v</cmt>
<desc>Ambly Chemin n°11 </desc>
<link href="https://chemins.be/ambly/chemin/11"/><trkseg>
<trkpt lat="50.144994" lon="5.282133"><time>2026-05-04T18:40:26Z</time></trkpt>
<trkpt lat="50.145464" lon="5.284093"><time>2026-05-04T18:50:26Z</time></trkpt>
<trkpt lat="50.145554" lon="5.284543"><time>2026-05-04T19:00:26Z</time></trkpt>
<trkpt lat="50.145934" lon="5.285663"><time>2026-05-04T19:10:26Z</time></trkpt>
<trkpt lat="50.146424" lon="5.287033"><time>2026-05-04T19:20:26Z</time></trkpt>
<trkpt lat="50.146694" lon="5.287603"><time>2026-05-04T19:30:26Z</time></trkpt>
<trkpt lat="50.146974" lon="5.288503"><time>2026-05-04T19:40:26Z</time></trkpt>
<trkpt lat="50.147384" lon="5.289423"><time>2026-05-04T19:50:26Z</time></trkpt>
<trkpt lat="50.147754" lon="5.290023"><time>2026-05-04T20:00:26Z</time></trkpt>
<trkpt lat="50.147934" lon="5.290313"><time>2026-05-04T20:10:26Z</time></trkpt>
</trkseg>
</trk>
<trk>
<name>xnsab12</name>
<cmt>v</cmt>
<desc>Ambly Chemin n°12 </desc>
<link href="https://chemins.be/ambly/chemin/12"/><trkseg>
<trkpt lat="50.158734" lon="5.297921"><time>2026-05-04T18:00:26Z</time></trkpt>
<trkpt lat="50.158938" lon="5.295372"><time>2026-05-04T18:10:26Z</time></trkpt>
<trkpt lat="50.158157" lon="5.291466"><time>2026-05-04T18:20:26Z</time></trkpt>
<trkpt lat="50.157453" lon="5.288728"><time>2026-05-04T18:30:26Z</time></trkpt>
<trkpt lat="50.157932" lon="5.285973"><time>2026-05-04T18:40:26Z</time></trkpt>
<trkpt lat="50.158031" lon="5.283081"><time>2026-05-04T18:50:26Z</time></trkpt>
<trkpt lat="50.158894" lon="5.280780"><time>2026-05-04T19:00:26Z</time></trkpt>
</trkseg>
</trk>
<trk>
<name>xnsab13</name>
<cmt>v</cmt>
<desc>Ambly Chemin n°13 </desc>
<link href="https://chemins.be/ambly/chemin/13"/><trkseg>
<trkpt lat="50.154407" lon="5.282857"><time>2026-05-04T18:00:26Z</time></trkpt>
<trkpt lat="50.154722" lon="5.282947"><time>2026-05-04T18:10:26Z</time></trkpt>
<trkpt lat="50.156085" lon="5.282670"><time>2026-05-04T18:20:26Z</time></trkpt>
<trkpt lat="50.157277" lon="5.280846"><time>2026-05-04T18:30:26Z</time></trkpt>
<trkpt lat="50.157557" lon="5.277310"><time>2026-05-04T18:40:26Z</time></trkpt>
</trkseg>
</trk>
<trk>
<name>xnsab14</name>
<cmt>v</cmt>
<desc>Ambly Chemin n°14 </desc>
<link href="https://chemins.be/ambly/chemin/14"/><trkseg>
<trkpt lat="50.148605" lon="5.300365"><time>2026-05-04T18:00:26Z</time></trkpt>
<trkpt lat="50.149276" lon="5.299223"><time>2026-05-04T18:10:26Z</time></trkpt>
<trkpt lat="50.150024" lon="5.298837"><time>2026-05-04T18:20:26Z</time></trkpt>
<trkpt lat="50.150854" lon="5.298949"><time>2026-05-04T18:30:26Z</time></trkpt>
<trkpt lat="50.152301" lon="5.300210"><time>2026-05-04T18:40:26Z</time></trkpt>
<trkpt lat="50.152768" lon="5.300176"><time>2026-05-04T18:50:26Z</time></trkpt>
<trkpt lat="50.152895" lon="5.300399"><time>2026-05-04T19:00:26Z</time></trkpt>
<trkpt lat="50.153945" lon="5.301137"><time>2026-05-04T19:10:26Z</time></trkpt>
</trkseg>
</trk>
<trk>
<name>xnsab15</name>
<cmt>d</cmt>
<desc>Ambly Chemin n°15 </desc>
<link href="https://chemins.be/ambly/chemin/15"/><trkseg>
<trkpt lat="50.146792" lon="5.329674"><time>2026-05-04T18:00:26Z</time></trkpt>
<trkpt lat="50.147170" lon="5.329151"><time>2026-05-04T18:10:26Z</time></trkpt>
</trkseg></trk>
<trk>
<name>xnsab15</name>
<cmt>q</cmt>
<desc>Ambly Chemin n°15 </desc>
<link href="https://chemins.be/ambly/chemin/15"/><trkseg>
<trkpt lat="50.147170" lon="5.329151"><time>2026-05-04T18:10:26Z</time></trkpt>
<trkpt lat="50.148157" lon="5.328051"><time>2026-05-04T18:20:26Z</time></trkpt>
</trkseg></trk>
<trk>
<name>xnsab15</name>
<cmt>r</cmt>
<desc>Ambly Chemin n°15 </desc>
<link href="https://chemins.be/ambly/chemin/15"/><trkseg>
<trkpt lat="50.148157" lon="5.328051"><time>2026-05-04T18:20:26Z</time></trkpt>
<trkpt lat="50.148194" lon="5.326663"><time>2026-05-04T18:30:26Z</time></trkpt>
<trkpt lat="50.149114" lon="5.325821"><time>2026-05-04T18:40:26Z</time></trkpt>
<trkpt lat="50.149615" lon="5.324718"><time>2026-05-04T18:50:26Z</time></trkpt>
<trkpt lat="50.150310" lon="5.324061"><time>2026-05-04T19:00:26Z</time></trkpt>
<trkpt lat="50.151384" lon="5.321556"><time>2026-05-04T19:10:26Z</time></trkpt>
</trkseg></trk>
<trk>
<name>xnsab15</name>
<cmt>v</cmt>
<desc>Ambly Chemin n°15 </desc>
<link href="https://chemins.be/ambly/chemin/15"/><trkseg>
<trkpt lat="50.151384" lon="5.321556"><time>2026-05-04T19:10:26Z</time></trkpt>
<trkpt lat="50.152784" lon="5.320094"><time>2026-05-04T19:20:26Z</time></trkpt>
<trkpt lat="50.153179" lon="5.319166"><time>2026-05-04T19:30:26Z</time></trkpt>
<trkpt lat="50.154018" lon="5.318351"><time>2026-05-04T19:40:26Z</time></trkpt>
<trkpt lat="50.155172" lon="5.317412"><time>2026-05-04T19:50:26Z</time></trkpt>
<trkpt lat="50.154526" lon="5.316388"><time>2026-05-04T20:00:26Z</time></trkpt>
<trkpt lat="50.154220" lon="5.315551"><time>2026-05-04T20:10:26Z</time></trkpt>
<trkpt lat="50.153684" lon="5.313614"><time>2026-05-04T20:20:26Z</time></trkpt>
</trkseg>
</trk>
<trk>
<name>xnsab16</name>
<cmt>r</cmt>
<desc>Ambly Chemin n°16 </desc>
<link href="https://chemins.be/ambly/chemin/16"/><trkseg>
<trkpt lat="50.150221" lon="5.329934"><time>2026-05-04T18:00:26Z</time></trkpt>
<trkpt lat="50.149795" lon="5.331121"><time>2026-05-04T18:10:26Z</time></trkpt>
<trkpt lat="50.149776" lon="5.332480"><time>2026-05-04T18:20:26Z</time></trkpt>
<trkpt lat="50.149850" lon="5.334168"><time>2026-05-04T18:30:26Z</time></trkpt>
<trkpt lat="50.149511" lon="5.335177"><time>2026-05-04T18:40:26Z</time></trkpt>
<trkpt lat="50.149584" lon="5.336607"><time>2026-05-04T18:50:26Z</time></trkpt>
</trkseg>
</trk>
<trk>
<name>xnsab17</name>
<cmt>v</cmt>
<desc>Ambly Chemin n°17 </desc>
<link href="https://chemins.be/ambly/chemin/17"/><trkseg>
<trkpt lat="50.130934" lon="5.319085"><time>2026-05-04T18:00:26Z</time></trkpt>
<trkpt lat="50.130812" lon="5.319361"><time>2026-05-04T18:10:26Z</time></trkpt>
<trkpt lat="50.129662" lon="5.320181"><time>2026-05-04T18:20:26Z</time></trkpt>
<trkpt lat="50.129543" lon="5.320458"><time>2026-05-04T18:30:26Z</time></trkpt>
<trkpt lat="50.128922" lon="5.320530"><time>2026-05-04T18:40:26Z</time></trkpt>
<trkpt lat="50.128729" lon="5.321015"><time>2026-05-04T18:50:26Z</time></trkpt>
<trkpt lat="50.127940" lon="5.321457"><time>2026-05-04T19:00:26Z</time></trkpt>
<trkpt lat="50.127558" lon="5.321548"><time>2026-05-04T19:10:26Z</time></trkpt>
<trkpt lat="50.126261" lon="5.322616"><time>2026-05-04T19:20:26Z</time></trkpt>
<trkpt lat="50.126153" lon="5.323733"><time>2026-05-04T19:30:26Z</time></trkpt>
<trkpt lat="50.124539" lon="5.324420"><time>2026-05-04T19:40:26Z</time></trkpt>
<trkpt lat="50.122801" lon="5.326827"><time>2026-05-04T19:50:26Z</time></trkpt>
<trkpt lat="50.122374" lon="5.327294"><time>2026-05-04T20:00:26Z</time></trkpt>
<trkpt lat="50.122142" lon="5.328240"><time>2026-05-04T20:10:26Z</time></trkpt>
</trkseg>
</trk>
<trk>
<name>xnsab18</name>
<cmt>v</cmt>
<desc>Ambly Chemin n°18 </desc>
<link href="https://chemins.be/ambly/chemin/18"/><trkseg>
<trkpt lat="50.146584" lon="5.309793"><time>2026-05-04T18:00:26Z</time></trkpt>
<trkpt lat="50.147681" lon="5.312556"><time>2026-05-04T18:10:26Z</time></trkpt>
</trkseg>
</trk>
<trk>
<name>xnsab19</name>
<cmt>v</cmt>
<desc>Ambly Chemin n°19 </desc>
<link href="https://chemins.be/ambly/chemin/19"/><trkseg>
<trkpt lat="50.146918" lon="5.308937"><time>2026-05-04T18:00:26Z</time></trkpt>
<trkpt lat="50.146458" lon="5.308048"><time>2026-05-04T18:10:26Z</time></trkpt>
</trkseg>
</trk>
<trk>
<name>xnsab2</name>
<cmt>r</cmt>
<desc>Ambly Chemin n°2 </desc>
<link href="https://chemins.be/ambly/chemin/2"/><trkseg>
<trkpt lat="50.131148" lon="5.319083"><time>2026-05-04T18:00:26Z</time></trkpt>
<trkpt lat="50.130291" lon="5.319026"><time>2026-05-04T18:10:26Z</time></trkpt>
<trkpt lat="50.128214" lon="5.316530"><time>2026-05-04T18:20:26Z</time></trkpt>
<trkpt lat="50.127645" lon="5.316465"><time>2026-05-04T18:30:26Z</time></trkpt>
</trkseg>
</trk>
<trk>
<name>xnsab21</name>
<cmt>r</cmt>
<desc>Ambly Chemin n°21 </desc>
<link href="https://chemins.be/ambly/chemin/21"/><trkseg>
<trkpt lat="50.142073" lon="5.312606"><time>2026-05-04T18:00:26Z</time></trkpt>
<trkpt lat="50.141565" lon="5.313072"><time>2026-05-04T18:10:26Z</time></trkpt>
<trkpt lat="50.141350" lon="5.312645"><time>2026-05-04T18:20:26Z</time></trkpt>
<trkpt lat="50.140896" lon="5.312549"><time>2026-05-04T18:30:26Z</time></trkpt>
</trkseg></trk>
<trk>
<name>xnsab21</name>
<cmt>v</cmt>
<desc>Ambly Chemin n°21 </desc>
<link href="https://chemins.be/ambly/chemin/21"/><trkseg>
<trkpt lat="50.140896" lon="5.312549"><time>2026-05-04T18:30:26Z</time></trkpt>
<trkpt lat="50.140765" lon="5.311898"><time>2026-05-04T18:40:26Z</time></trkpt>
</trkseg>
</trk>
<trk>
<name>xnsab22</name>
<cmt>v</cmt>
<desc>Ambly Chemin n°22 </desc>
<link href="https://chemins.be/ambly/chemin/22"/><trkseg>
<trkpt lat="50.138125" lon="5.314516"><time>2026-05-04T18:00:26Z</time></trkpt>
<trkpt lat="50.138413" lon="5.316648"><time>2026-05-04T18:10:26Z</time></trkpt>
<trkpt lat="50.138350" lon="5.317780"><time>2026-05-04T18:20:26Z</time></trkpt>
</trkseg>
</trk>
<trk>
<name>xnsab23</name>
<cmt>v</cmt>
<desc>Ambly Chemin n°23 </desc>
<link href="https://chemins.be/ambly/chemin/23"/><trkseg>
<trkpt lat="50.138192" lon="5.319456"><time>2026-05-04T18:00:26Z</time></trkpt>
<trkpt lat="50.138667" lon="5.320696"><time>2026-05-04T18:10:26Z</time></trkpt>
<trkpt lat="50.139795" lon="5.323559"><time>2026-05-04T18:20:26Z</time></trkpt>
<trkpt lat="50.140320" lon="5.325290"><time>2026-05-04T18:30:26Z</time></trkpt>
</trkseg>
</trk>
<trk>
<name>xnsab24</name>
<cmt>r</cmt>
<desc>Ambly Chemin n°24 Rue de la Prée</desc>
<link href="https://chemins.be/ambly/chemin/24"/><trkseg>
<trkpt lat="50.141738" lon="5.314489"><time>2026-05-04T18:00:26Z</time></trkpt>
<trkpt lat="50.142208" lon="5.314653"><time>2026-05-04T18:10:26Z</time></trkpt>
</trkseg></trk>
<trk>
<name>xnsab24</name>
<cmt>v</cmt>
<desc>Ambly Chemin n°24 Rue de la Prée</desc>
<link href="https://chemins.be/ambly/chemin/24"/><trkseg>
<trkpt lat="50.142208" lon="5.314653"><time>2026-05-04T18:10:26Z</time></trkpt>
<trkpt lat="50.142628" lon="5.315281"><time>2026-05-04T18:20:26Z</time></trkpt>
</trkseg>
</trk>
<trk>
<name>xnsab25</name>
<cmt>r</cmt>
<desc>Ambly Chemin n°25 </desc>
<link href="https://chemins.be/ambly/chemin/25"/><trkseg>
<trkpt lat="50.145764" lon="5.330373"><time>2026-05-04T18:00:26Z</time></trkpt>
<trkpt lat="50.145806" lon="5.331816"><time>2026-05-04T18:10:26Z</time></trkpt>
</trkseg></trk>
<trk>
<name>xnsab25</name>
<cmt>v</cmt>
<desc>Ambly Chemin n°25 </desc>
<link href="https://chemins.be/ambly/chemin/25"/><trkseg>
<trkpt lat="50.145806" lon="5.331816"><time>2026-05-04T18:10:26Z</time></trkpt>
<trkpt lat="50.145520" lon="5.333141"><time>2026-05-04T18:20:26Z</time></trkpt>
<trkpt lat="50.144623" lon="5.333894"><time>2026-05-04T18:30:26Z</time></trkpt>
<trkpt lat="50.143832" lon="5.334713"><time>2026-05-04T18:40:26Z</time></trkpt>
<trkpt lat="50.143712" lon="5.335533"><time>2026-05-04T18:50:26Z</time></trkpt>
</trkseg>
</trk>
<trk>
<name>xnsab26</name>
<cmt>v</cmt>
<desc>Ambly Chemin n°26 </desc>
<link href="https://chemins.be/ambly/chemin/26"/><trkseg>
<trkpt lat="50.145792" lon="5.331322"><time>2026-05-04T18:00:26Z</time></trkpt>
<trkpt lat="50.144597" lon="5.331744"><time>2026-05-04T18:10:26Z</time></trkpt>
<trkpt lat="50.144228" lon="5.331875"><time>2026-05-04T18:20:26Z</time></trkpt>
<trkpt lat="50.143207" lon="5.331853"><time>2026-05-04T18:30:26Z</time></trkpt>
<trkpt lat="50.141990" lon="5.331853"><time>2026-05-04T18:40:26Z</time></trkpt>
<trkpt lat="50.139589" lon="5.332367"><time>2026-05-04T18:50:26Z</time></trkpt>
</trkseg>
</trk>
<trk>
<name>xnsab28</name>
<cmt>v</cmt>
<desc>Ambly Chemin n°28 </desc>
<link href="https://chemins.be/ambly/chemin/28"/><trkseg>
<trkpt lat="50.145741" lon="5.313386"><time>2026-05-04T18:00:26Z</time></trkpt>
<trkpt lat="50.145548" lon="5.313461"><time>2026-05-04T18:10:26Z</time></trkpt>
</trkseg></trk>
<trk>
<name>xnsab28</name>
<cmt>q</cmt>
<desc>Ambly Chemin n°28 </desc>
<link href="https://chemins.be/ambly/chemin/28"/><trkseg>
<trkpt lat="50.145548" lon="5.313461"><time>2026-05-04T18:10:26Z</time></trkpt>
<trkpt lat="50.145348" lon="5.314061"><time>2026-05-04T18:20:26Z</time></trkpt>
</trkseg>
</trk>
<trk>
<name>xnsab29</name>
<cmt>v</cmt>
<desc>Ambly Chemin n°29 </desc>
<link href="https://chemins.be/ambly/chemin/29"/><trkseg>
<trkpt lat="50.147515" lon="5.319692"><time>2026-05-04T18:00:26Z</time></trkpt>
<trkpt lat="50.147293" lon="5.319889"><time>2026-05-04T18:10:26Z</time></trkpt>
<trkpt lat="50.147050" lon="5.319968"><time>2026-05-04T18:20:26Z</time></trkpt>
</trkseg>
</trk>
<trk>
<name>xnsab3</name>
<cmt>v</cmt>
<desc>Ambly Chemin n°3 Sur Baulet</desc>
<link href="https://chemins.be/ambly/chemin/3"/><trkseg>
<trkpt lat="50.153306" lon="5.283346"><time>2026-05-04T18:00:26Z</time></trkpt>
<trkpt lat="50.153708" lon="5.283020"><time>2026-05-04T18:10:26Z</time></trkpt>
</trkseg>
</trk>
<trk>
<name>xnsab30</name>
<cmt>q</cmt>
<desc>Ambly Sentier n°30 </desc>
<link href="https://chemins.be/ambly/sentier/30"/><trkseg>
<trkpt lat="50.142637" lon="5.315280"><time>2026-05-04T18:00:26Z</time></trkpt>
<trkpt lat="50.144200" lon="5.314649"><time>2026-05-04T18:10:26Z</time></trkpt>
<trkpt lat="50.144935" lon="5.314118"><time>2026-05-04T18:20:26Z</time></trkpt>
<trkpt lat="50.144933" lon="5.314216"><time>2026-05-04T18:30:26Z</time></trkpt>
<trkpt lat="50.145345" lon="5.314052"><time>2026-05-04T18:40:26Z</time></trkpt>
</trkseg>
</trk>
<trk>
<name>xnsab31</name>
<cmt>q</cmt>
<desc>Ambly Sentier n°31 </desc>
<link href="https://chemins.be/ambly/sentier/31"/><trkseg>
<trkpt lat="50.140752" lon="5.311891"><time>2026-05-04T18:00:26Z</time></trkpt>
<trkpt lat="50.139592" lon="5.308567"><time>2026-05-04T18:10:26Z</time></trkpt>
<trkpt lat="50.139520" lon="5.308071"><time>2026-05-04T18:20:26Z</time></trkpt>
<trkpt lat="50.138992" lon="5.306707"><time>2026-05-04T18:30:26Z</time></trkpt>
<trkpt lat="50.138044" lon="5.304256"><time>2026-05-04T18:40:26Z</time></trkpt>
</trkseg>
</trk>
<trk>
<name>xnsab32</name>
<cmt>d</cmt>
<desc>Ambly Sentier n°32 </desc>
<link href="https://chemins.be/ambly/sentier/32"/><trkseg>
<trkpt lat="50.141729" lon="5.315805"><time>2026-05-04T18:00:26Z</time></trkpt>
<trkpt lat="50.141143" lon="5.317094"><time>2026-05-04T18:10:26Z</time></trkpt>
<trkpt lat="50.140598" lon="5.317755"><time>2026-05-04T18:20:26Z</time></trkpt>
</trkseg></trk>
<trk>
<name>xnsab32</name>
<cmt>q</cmt>
<desc>Ambly Sentier n°32 </desc>
<link href="https://chemins.be/ambly/sentier/32"/><trkseg>
<trkpt lat="50.140598" lon="5.317755"><time>2026-05-04T18:20:26Z</time></trkpt>
<trkpt lat="50.138934" lon="5.319946"><time>2026-05-04T18:30:26Z</time></trkpt>
</trkseg></trk>
<trk>
<name>xnsab32</name>
<cmt>d</cmt>
<desc>Ambly Sentier n°32 </desc>
<link href="https://chemins.be/ambly/sentier/32"/><trkseg>
<trkpt lat="50.138934" lon="5.319946"><time>2026-05-04T18:30:26Z</time></trkpt>
<trkpt lat="50.138677" lon="5.320584"><time>2026-05-04T18:40:26Z</time></trkpt>
<trkpt lat="50.138192" lon="5.321638"><time>2026-05-04T18:50:26Z</time></trkpt>
</trkseg>
</trk>
<trk>
<name>xnsab33</name>
<cmt>v</cmt>
<desc>Ambly Sentier n°33 </desc>
<link href="https://chemins.be/ambly/sentier/33"/><trkseg>
<trkpt lat="50.156067" lon="5.282684"><time>2026-05-04T18:00:26Z</time></trkpt>
<trkpt lat="50.157227" lon="5.282622"><time>2026-05-04T18:10:26Z</time></trkpt>
<trkpt lat="50.158042" lon="5.283085"><time>2026-05-04T18:20:26Z</time></trkpt>
</trkseg>
</trk>
<trk>
<name>xnsab34</name>
<cmt>v</cmt>
<desc>Ambly Sentier n°34 </desc>
<link href="https://chemins.be/ambly/sentier/34"/><trkseg>
<trkpt lat="50.158620" lon="5.299354"><time>2026-05-04T18:00:26Z</time></trkpt>
<trkpt lat="50.157779" lon="5.298393"><time>2026-05-04T18:10:26Z</time></trkpt>
<trkpt lat="50.156184" lon="5.297449"><time>2026-05-04T18:20:26Z</time></trkpt>
</trkseg></trk>
<trk>
<name>xnsab34</name>
<cmt>q</cmt>
<desc>Ambly Sentier n°34 </desc>
<link href="https://chemins.be/ambly/sentier/34"/><trkseg>
<trkpt lat="50.156184" lon="5.297449"><time>2026-05-04T18:20:26Z</time></trkpt>
<trkpt lat="50.153358" lon="5.297303"><time>2026-05-04T18:30:26Z</time></trkpt>
<trkpt lat="50.149959" lon="5.298830"><time>2026-05-04T18:40:26Z</time></trkpt>
</trkseg>
</trk>
<trk>
<name>xnsab35</name>
<cmt>v</cmt>
<desc>Ambly Sentier n°35 </desc>
<link href="https://chemins.be/ambly/sentier/35"/><trkseg>
<trkpt lat="50.152961" lon="5.300390"><time>2026-05-04T18:00:26Z</time></trkpt>
<trkpt lat="50.154049" lon="5.299318"><time>2026-05-04T18:10:26Z</time></trkpt>
<trkpt lat="50.154407" lon="5.299249"><time>2026-05-04T18:20:26Z</time></trkpt>
<trkpt lat="50.156222" lon="5.297507"><time>2026-05-04T18:30:26Z</time></trkpt>
</trkseg>
</trk>
<trk>
<name>xnsab37</name>
<cmt>q</cmt>
<desc>Ambly Sentier n°37 </desc>
<link href="https://chemins.be/ambly/sentier/37"/><trkseg>
<trkpt lat="50.146976" lon="5.313075"><time>2026-05-04T18:00:26Z</time></trkpt>
<trkpt lat="50.147719" lon="5.312517"><time>2026-05-04T18:10:26Z</time></trkpt>
<trkpt lat="50.148729" lon="5.312431"><time>2026-05-04T18:20:26Z</time></trkpt>
<trkpt lat="50.149011" lon="5.312796"><time>2026-05-04T18:30:26Z</time></trkpt>
<trkpt lat="50.151149" lon="5.313204"><time>2026-05-04T18:40:26Z</time></trkpt>
<trkpt lat="50.153658" lon="5.311444"><time>2026-05-04T18:50:26Z</time></trkpt>
<trkpt lat="50.158731" lon="5.312560"><time>2026-05-04T19:00:26Z</time></trkpt>
<trkpt lat="50.159982" lon="5.312195"><time>2026-05-04T19:10:26Z</time></trkpt>
<trkpt lat="50.160374" lon="5.311981"><time>2026-05-04T19:20:26Z</time></trkpt>
</trkseg>
</trk>
<trk>
<name>xnsab4</name>
<cmt>v</cmt>
<desc>Ambly Chemin n°4 </desc>
<link href="https://chemins.be/ambly/chemin/4"/><trkseg>
<trkpt lat="50.145756" lon="5.313047"><time>2026-05-04T18:00:26Z</time></trkpt>
<trkpt lat="50.146322" lon="5.312893"><time>2026-05-04T18:10:26Z</time></trkpt>
</trkseg></trk>
<trk>
<name>xnsab4</name>
<cmt>d</cmt>
<desc>Ambly Chemin n°4 </desc>
<link href="https://chemins.be/ambly/chemin/4"/><trkseg>
<trkpt lat="50.146322" lon="5.312893"><time>2026-05-04T18:10:26Z</time></trkpt>
<trkpt lat="50.147010" lon="5.313090"><time>2026-05-04T18:20:26Z</time></trkpt>
<trkpt lat="50.148022" lon="5.314403"><time>2026-05-04T18:30:26Z</time></trkpt>
</trkseg></trk>
<trk>
<name>xnsab4</name>
<cmt>v</cmt>
<desc>Ambly Chemin n°4 </desc>
<link href="https://chemins.be/ambly/chemin/4"/><trkseg>
<trkpt lat="50.148022" lon="5.314403"><time>2026-05-04T18:30:26Z</time></trkpt>
<trkpt lat="50.148500" lon="5.314712"><time>2026-05-04T18:40:26Z</time></trkpt>
</trkseg>
</trk>
<trk>
<name>xnsab6</name>
<cmt>q</cmt>
<desc>Ambly Chemin n°6 </desc>
<link href="https://chemins.be/ambly/chemin/6"/><trkseg>
<trkpt lat="50.154018" lon="5.335875"><time>2026-05-04T18:00:26Z</time></trkpt>
<trkpt lat="50.155294" lon="5.341111"><time>2026-05-04T18:10:26Z</time></trkpt>
<trkpt lat="50.155591" lon="5.345574"><time>2026-05-04T18:20:26Z</time></trkpt>
<trkpt lat="50.156042" lon="5.348612"><time>2026-05-04T18:30:26Z</time></trkpt>
</trkseg>
</trk>
<trk>
<name>xnsab9</name>
<cmt>v</cmt>
<desc>Ambly Chemin n°9 Chemin du Thier d'Ambly / Rue Richard Heintz</desc>
<link href="https://chemins.be/ambly/chemin/9"/><trkseg>
<trkpt lat="50.142086" lon="5.317183"><time>2026-05-04T18:00:26Z</time></trkpt>
<trkpt lat="50.141378" lon="5.317938"><time>2026-05-04T18:10:26Z</time></trkpt>
<trkpt lat="50.140978" lon="5.317870"><time>2026-05-04T18:20:26Z</time></trkpt>
<trkpt lat="50.140517" lon="5.317781"><time>2026-05-04T18:30:26Z</time></trkpt>
<trkpt lat="50.139621" lon="5.317497"><time>2026-05-04T18:40:26Z</time></trkpt>
<trkpt lat="50.138822" lon="5.317244"><time>2026-05-04T18:50:26Z</time></trkpt>
<trkpt lat="50.138304" lon="5.317821"><time>2026-05-04T19:00:26Z</time></trkpt>
<trkpt lat="50.138223" lon="5.317875"><time>2026-05-04T19:10:26Z</time></trkpt>
<trkpt lat="50.138088" lon="5.317873"><time>2026-05-04T19:20:26Z</time></trkpt>
<trkpt lat="50.138015" lon="5.318011"><time>2026-05-04T19:30:26Z</time></trkpt>
<trkpt lat="50.137994" lon="5.318388"><time>2026-05-04T19:40:26Z</time></trkpt>
<trkpt lat="50.138053" lon="5.318879"><time>2026-05-04T19:50:26Z</time></trkpt>
<trkpt lat="50.138114" lon="5.319090"><time>2026-05-04T20:00:26Z</time></trkpt>
<trkpt lat="50.138174" lon="5.319441"><time>2026-05-04T20:10:26Z</time></trkpt>
<trkpt lat="50.138202" lon="5.321554"><time>2026-05-04T20:20:26Z</time></trkpt>
<trkpt lat="50.137692" lon="5.323936"><time>2026-05-04T20:30:26Z</time></trkpt>
<trkpt lat="50.136735" lon="5.328156"><time>2026-05-04T20:40:26Z</time></trkpt>
<trkpt lat="50.136121" lon="5.329598"><time>2026-05-04T20:50:26Z</time></trkpt>
</trkseg></trk>
<trk>
<name>xnsab9</name>
<cmt>r</cmt>
<desc>Ambly Chemin n°9 Chemin du Thier d'Ambly / Rue Richard Heintz</desc>
<link href="https://chemins.be/ambly/chemin/9"/><trkseg>
<trkpt lat="50.136121" lon="5.329598"><time>2026-05-04T20:50:26Z</time></trkpt>
<trkpt lat="50.135186" lon="5.331692"><time>2026-05-04T21:00:26Z</time></trkpt>
<trkpt lat="50.133695" lon="5.333704"><time>2026-05-04T21:10:26Z</time></trkpt>
</trkseg>
</trk>
<trk>
<name>xnsab9bis</name>
<cmt>v</cmt>
<desc>Ambly Chemin n°9bis </desc>
<link href="https://chemins.be/ambly/chemin/9bis"/><trkseg>
<trkpt lat="50.143387" lon="5.320836"><time>2026-05-04T18:00:26Z</time></trkpt>
<trkpt lat="50.144273" lon="5.321870"><time>2026-05-04T18:10:26Z</time></trkpt>
<trkpt lat="50.145181" lon="5.323402"><time>2026-05-04T18:20:26Z</time></trkpt>
<trkpt lat="50.145478" lon="5.324483"><time>2026-05-04T18:30:26Z</time></trkpt>
</trkseg></trk>
<trk>
<name>xnsab9bis</name>
<cmt>q</cmt>
<desc>Ambly Chemin n°9bis </desc>
<link href="https://chemins.be/ambly/chemin/9bis"/><trkseg>
<trkpt lat="50.145478" lon="5.324483"><time>2026-05-04T18:30:26Z</time></trkpt>
<trkpt lat="50.145815" lon="5.326157"><time>2026-05-04T18:40:26Z</time></trkpt>
</trkseg></trk>
<trk>
<name>xnsab9bis</name>
<cmt>d</cmt>
<desc>Ambly Chemin n°9bis </desc>
<link href="https://chemins.be/ambly/chemin/9bis"/><trkseg>
<trkpt lat="50.145815" lon="5.326157"><time>2026-05-04T18:40:26Z</time></trkpt>
<trkpt lat="50.146829" lon="5.329726"><time>2026-05-04T18:50:26Z</time></trkpt>
<trkpt lat="50.147764" lon="5.331729"><time>2026-05-04T19:00:26Z</time></trkpt>
<trkpt lat="50.148475" lon="5.332423"><time>2026-05-04T19:10:26Z</time></trkpt>
<trkpt lat="50.148260" lon="5.334114"><time>2026-05-04T19:20:26Z</time></trkpt>
<trkpt lat="50.148436" lon="5.334484"><time>2026-05-04T19:30:26Z</time></trkpt>
</trkseg></trk>
<trk>
<name>xnsab9bis</name>
<cmt>v</cmt>
<desc>Ambly Chemin n°9bis </desc>
<link href="https://chemins.be/ambly/chemin/9bis"/><trkseg>
<trkpt lat="50.148436" lon="5.334484"><time>2026-05-04T19:30:26Z</time></trkpt>
<trkpt lat="50.149578" lon="5.336620"><time>2026-05-04T19:40:26Z</time></trkpt>
</trkseg></trk>
<trk>
<name>xnsab9bis</name>
<cmt>r</cmt>
<desc>Ambly Chemin n°9bis </desc>
<link href="https://chemins.be/ambly/chemin/9bis"/><trkseg>
<trkpt lat="50.149578" lon="5.336620"><time>2026-05-04T19:40:26Z</time></trkpt>
<trkpt lat="50.150484" lon="5.339325"><time>2026-05-04T19:50:26Z</time></trkpt>
<trkpt lat="50.150434" lon="5.339790"><time>2026-05-04T20:00:26Z</time></trkpt>
<trkpt lat="50.151250" lon="5.341986"><time>2026-05-04T20:10:26Z</time></trkpt>
</trkseg></trk>
<trk>
<name>xnsab9bis</name>
<cmt>q</cmt>
<desc>Ambly Chemin n°9bis </desc>
<link href="https://chemins.be/ambly/chemin/9bis"/><trkseg>
<trkpt lat="50.151250" lon="5.341986"><time>2026-05-04T20:10:26Z</time></trkpt>
<trkpt lat="50.153171" lon="5.346791"><time>2026-05-04T20:20:26Z</time></trkpt>
</trkseg>
</trk>
<trk>
<name>xnsabi1</name>
<cmt>v</cmt>
<desc>Ambly Chemin n°i1 </desc>
<link href="https://chemins.be/ambly/chemin/i1"/><trkseg>
<trkpt lat="50.131426" lon="5.318887"><time>2026-05-04T18:00:26Z</time></trkpt>
<trkpt lat="50.131996" lon="5.317402"><time>2026-05-04T18:10:26Z</time></trkpt>
<trkpt lat="50.132085" lon="5.316396"><time>2026-05-04T18:20:26Z</time></trkpt>
<trkpt lat="50.132419" lon="5.315144"><time>2026-05-04T18:30:26Z</time></trkpt>
<trkpt lat="50.132441" lon="5.313592"><time>2026-05-04T18:40:26Z</time></trkpt>
<trkpt lat="50.132568" lon="5.312349"><time>2026-05-04T18:50:26Z</time></trkpt>
</trkseg>
</trk>
<trk>
<name>xnsabi2</name>
<cmt>v</cmt>
<desc>Ambly Chemin n°i2 </desc>
<link href="https://chemins.be/ambly/chemin/i2"/><trkseg>
<trkpt lat="50.147930" lon="5.307011"><time>2026-05-04T18:00:26Z</time></trkpt>
<trkpt lat="50.148274" lon="5.307295"><time>2026-05-04T18:10:26Z</time></trkpt>
<trkpt lat="50.149697" lon="5.310514"><time>2026-05-04T18:20:26Z</time></trkpt>
</trkseg>
</trk>
<trk>
<name>xnsabi3</name>
<cmt>v</cmt>
<desc>Ambly Chemin n°i3 </desc>
<link href="https://chemins.be/ambly/chemin/i3"/><trkseg>
<trkpt lat="50.147686" lon="5.312541"><time>2026-05-04T18:00:26Z</time></trkpt>
<trkpt lat="50.148000" lon="5.313476"><time>2026-05-04T18:10:26Z</time></trkpt>
<trkpt lat="50.148258" lon="5.314558"><time>2026-05-04T18:20:26Z</time></trkpt>
</trkseg>
</trk>
<trk>
<name>xnsabi4</name>
<cmt>v</cmt>
<desc>Ambly Chemin n°i4 </desc>
<link href="https://chemins.be/ambly/chemin/i4"/><trkseg>
<trkpt lat="50.144088" lon="5.280698"><time>2026-05-04T18:00:26Z</time></trkpt>
<trkpt lat="50.144335" lon="5.280687"><time>2026-05-04T18:10:26Z</time></trkpt>
<trkpt lat="50.144975" lon="5.282125"><time>2026-05-04T18:20:26Z</time></trkpt>
</trkseg>
</trk>
<trk>
<name>xnsabi5</name>
<cmt>v</cmt>
<desc>Ambly Chemin n°i5 </desc>
<link href="https://chemins.be/ambly/chemin/i5"/><trkseg>
<trkpt lat="50.140309" lon="5.325208"><time>2026-05-04T18:00:26Z</time></trkpt>
<trkpt lat="50.140606" lon="5.326290"><time>2026-05-04T18:10:26Z</time></trkpt>
<trkpt lat="50.142575" lon="5.329397"><time>2026-05-04T18:20:26Z</time></trkpt>
<trkpt lat="50.142520" lon="5.329981"><time>2026-05-04T18:30:26Z</time></trkpt>
<trkpt lat="50.142908" lon="5.331858"><time>2026-05-04T18:40:26Z</time></trkpt>
</trkseg>
</trk>
<trk>
<name>xnsabi6</name>
<cmt>v</cmt>
<desc>Ambly Chemin n°i6 </desc>
<link href="https://chemins.be/ambly/chemin/i6"/><trkseg>
<trkpt lat="50.146439" lon="5.308019"><time>2026-05-04T18:00:26Z</time></trkpt>
<trkpt lat="50.145664" lon="5.306810"><time>2026-05-04T18:10:26Z</time></trkpt>
<trkpt lat="50.145021" lon="5.305054"><time>2026-05-04T18:20:26Z</time></trkpt>
</trkseg>
</trk>
</gpx>